sensor_id;sensor_type;location;lat;lon;timestamp;P1;durP1;ratioP1;P2;durP2;ratioP2
18162;SDS011;9206;50.994;4.538;2023-06-14T00:00:36;6.57;;;5.30;;
18162;SDS011;9206;50.994;4.538;2023-06-14T00:03:34;8.38;;;5.53;;
18162;SDS011;9206;50.994;4.538;2023-06-14T00:06:24;8.13;;;5.60;;
18162;SDS011;9206;50.994;4.538;2023-06-14T00:09:11;15.70;;;5.28;;
18162;SDS011;9206;50.994;4.538;2023-06-14T00:12:04;6.53;;;5.50;;
18162;SDS011;9206;50.994;4.538;2023-06-14T00:19:04;8.25;;;5.18;;
18162;SDS011;9206;50.994;4.538;2023-06-14T00:24:38;10.13;;;6.43;;
18162;SDS011;9206;50.994;4.538;2023-06-14T00:31:37;6.35;;;5.28;;
18162;SDS011;9206;50.994;4.538;2023-06-14T00:34:28;9.90;;;5.40;;
18162;SDS011;9206;50.994;4.538;2023-06-14T00:37:28;5.63;;;5.32;;
18162;SDS011;9206;50.994;4.538;2023-06-14T00:40:22;6.38;;;5.70;;
18162;SDS011;9206;50.994;4.538;2023-06-14T00:43:10;6.40;;;5.20;;
18162;SDS011;9206;50.994;4.538;2023-06-14T00:46:00;5.68;;;5.25;;
18162;SDS011;9206;50.994;4.538;2023-06-14T00:51:54;7.32;;;5.72;;
18162;SDS011;9206;50.994;4.538;2023-06-14T00:54:44;6.63;;;5.55;;
18162;SDS011;9206;50.994;4.538;2023-06-14T00:57:45;10.43;;;5.35;;
18162;SDS011;9206;50.994;4.538;2023-06-14T01:10:45;6.18;;;5.57;;
18162;SDS011;9206;50.994;4.538;2023-06-14T01:13:39;10.00;;;6.22;;
18162;SDS011;9206;50.994;4.538;2023-06-14T01:16:32;13.45;;;6.10;;
18162;SDS011;9206;50.994;4.538;2023-06-14T01:19:21;13.82;;;6.20;;
18162;SDS011;9206;50.994;4.538;2023-06-14T01:22:16;11.23;;;6.30;;
18162;SDS011;9206;50.994;4.538;2023-06-14T01:30:18;6.95;;;6.28;;
18162;SDS011;9206;50.994;4.538;2023-06-14T01:33:08;8.43;;;6.25;;
18162;SDS011;9206;50.994;4.538;2023-06-14T01:36:02;11.40;;;6.18;;
18162;SDS011;9206;50.994;4.538;2023-06-14T01:38:53;6.28;;;5.78;;
18162;SDS011;9206;50.994;4.538;2023-06-14T01:41:56;12.77;;;6.55;;
18162;SDS011;9206;50.994;4.538;2023-06-14T01:45:23;9.68;;;6.40;;
18162;SDS011;9206;50.994;4.538;2023-06-14T01:51:36;7.25;;;6.55;;
18162;SDS011;9206;50.994;4.538;2023-06-14T01:54:24;12.65;;;6.35;;
18162;SDS011;9206;50.994;4.538;2023-06-14T01:57:19;7.43;;;6.75;;
18162;SDS011;9206;50.994;4.538;2023-06-14T02:03:14;6.82;;;6.43;;
18162;SDS011;9206;50.994;4.538;2023-06-14T02:06:03;7.60;;;6.30;;
18162;SDS011;9206;50.994;4.538;2023-06-14T02:09:12;7.30;;;6.72;;
18162;SDS011;9206;50.994;4.538;2023-06-14T02:12:03;6.75;;;6.15;;
18162;SDS011;9206;50.994;4.538;2023-06-14T02:14:57;8.00;;;7.20;;
18162;SDS011;9206;50.994;4.538;2023-06-14T02:17:53;8.10;;;6.10;;
18162;SDS011;9206;50.994;4.538;2023-06-14T02:23:55;7.53;;;6.85;;
18162;SDS011;9206;50.994;4.538;2023-06-14T02:26:49;14.45;;;7.30;;
18162;SDS011;9206;50.994;4.538;2023-06-14T02:36:43;7.82;;;7.13;;
18162;SDS011;9206;50.994;4.538;2023-06-14T02:39:31;7.32;;;6.75;;
18162;SDS011;9206;50.994;4.538;2023-06-14T02:42:20;9.13;;;6.70;;
18162;SDS011;9206;50.994;4.538;2023-06-14T02:45:08;15.55;;;6.57;;
18162;SDS011;9206;50.994;4.538;2023-06-14T02:47:58;7.32;;;6.65;;
18162;SDS011;9206;50.994;4.538;2023-06-14T02:50:55;8.15;;;6.35;;
18162;SDS011;9206;50.994;4.538;2023-06-14T02:54:02;6.82;;;6.30;;
18162;SDS011;9206;50.994;4.538;2023-06-14T02:56:53;9.68;;;6.85;;
18162;SDS011;9206;50.994;4.538;2023-06-14T02:59:46;8.32;;;6.95;;
18162;SDS011;9206;50.994;4.538;2023-06-14T03:02:36;7.22;;;6.60;;
18162;SDS011;9206;50.994;4.538;2023-06-14T03:05:25;7.72;;;7.00;;
18162;SDS011;9206;50.994;4.538;2023-06-14T03:08:13;8.15;;;7.30;;
18162;SDS011;9206;50.994;4.538;2023-06-14T03:11:07;8.02;;;7.40;;
18162;SDS011;9206;50.994;4.538;2023-06-14T03:14:05;8.35;;;6.97;;
18162;SDS011;9206;50.994;4.538;2023-06-14T03:16:55;7.75;;;6.95;;
18162;SDS011;9206;50.994;4.538;2023-06-14T03:19:57;9.45;;;6.90;;
18162;SDS011;9206;50.994;4.538;2023-06-14T03:25:55;7.63;;;6.85;;
18162;SDS011;9206;50.994;4.538;2023-06-14T03:28:50;6.97;;;6.47;;
18162;SDS011;9206;50.994;4.538;2023-06-14T03:31:55;8.02;;;6.78;;
18162;SDS011;9206;50.994;4.538;2023-06-14T03:34:46;7.47;;;6.75;;
18162;SDS011;9206;50.994;4.538;2023-06-14T03:37:36;6.90;;;6.30;;
18162;SDS011;9206;50.994;4.538;2023-06-14T03:40:39;7.40;;;6.90;;
18162;SDS011;9206;50.994;4.538;2023-06-14T03:43:40;8.32;;;7.38;;
18162;SDS011;9206;50.994;4.538;2023-06-14T03:46:46;7.60;;;7.10;;
18162;SDS011;9206;50.994;4.538;2023-06-14T03:49:33;7.35;;;6.85;;
18162;SDS011;9206;50.994;4.538;2023-06-14T03:52:22;8.15;;;7.32;;
18162;SDS011;9206;50.994;4.538;2023-06-14T03:55:10;7.35;;;6.85;;
18162;SDS011;9206;50.994;4.538;2023-06-14T03:58:00;7.38;;;6.65;;
18162;SDS011;9206;50.994;4.538;2023-06-14T04:00:55;7.10;;;6.60;;
18162;SDS011;9206;50.994;4.538;2023-06-14T04:03:48;7.53;;;6.68;;
18162;SDS011;9206;50.994;4.538;2023-06-14T04:06:49;8.32;;;6.82;;
18162;SDS011;9206;50.994;4.538;2023-06-14T04:13:25;7.50;;;6.95;;
18162;SDS011;9206;50.994;4.538;2023-06-14T04:16:15;7.30;;;6.70;;
18162;SDS011;9206;50.994;4.538;2023-06-14T04:19:10;8.65;;;6.55;;
18162;SDS011;9206;50.994;4.538;2023-06-14T04:22:15;7.15;;;6.47;;
18162;SDS011;9206;50.994;4.538;2023-06-14T04:25:04;11.52;;;7.63;;
18162;SDS011;9206;50.994;4.538;2023-06-14T04:28:00;7.32;;;6.75;;
18162;SDS011;9206;50.994;4.538;2023-06-14T04:30:59;8.02;;;7.32;;
18162;SDS011;9206;50.994;4.538;2023-06-14T04:43:59;9.82;;;7.25;;
18162;SDS011;9206;50.994;4.538;2023-06-14T04:46:53;9.00;;;6.68;;
18162;SDS011;9206;50.994;4.538;2023-06-14T04:52:13;8.02;;;7.45;;
18162;SDS011;9206;50.994;4.538;2023-06-14T04:55:05;17.13;;;7.28;;
18162;SDS011;9206;50.994;4.538;2023-06-14T04:58:31;7.43;;;6.72;;
18162;SDS011;9206;50.994;4.538;2023-06-14T05:01:21;7.55;;;7.03;;
18162;SDS011;9206;50.994;4.538;2023-06-14T05:04:11;8.05;;;7.25;;
18162;SDS011;9206;50.994;4.538;2023-06-14T05:07:00;14.60;;;7.13;;
18162;SDS011;9206;50.994;4.538;2023-06-14T05:19:40;9.48;;;6.80;;
18162;SDS011;9206;50.994;4.538;2023-06-14T05:22:33;8.68;;;6.68;;
18162;SDS011;9206;50.994;4.538;2023-06-14T05:25:23;7.95;;;7.15;;
18162;SDS011;9206;50.994;4.538;2023-06-14T05:28:11;8.43;;;6.97;;
18162;SDS011;9206;50.994;4.538;2023-06-14T05:31:20;11.18;;;7.05;;
18162;SDS011;9206;50.994;4.538;2023-06-14T05:34:12;12.50;;;7.43;;
18162;SDS011;9206;50.994;4.538;2023-06-14T05:37:13;11.05;;;7.15;;
18162;SDS011;9206;50.994;4.538;2023-06-14T05:40:01;9.60;;;6.68;;
18162;SDS011;9206;50.994;4.538;2023-06-14T05:42:58;10.00;;;7.32;;
18162;SDS011;9206;50.994;4.538;2023-06-14T05:49:00;10.38;;;7.07;;
18162;SDS011;9206;50.994;4.538;2023-06-14T05:51:47;7.93;;;7.20;;
18162;SDS011;9206;50.994;4.538;2023-06-14T05:54:37;10.40;;;6.90;;
18162;SDS011;9206;50.994;4.538;2023-06-14T05:57:46;7.82;;;6.68;;
18162;SDS011;9206;50.994;4.538;2023-06-14T06:00:49;7.57;;;6.75;;
18162;SDS011;9206;50.994;4.538;2023-06-14T06:04:07;7.82;;;6.95;;
18162;SDS011;9206;50.994;4.538;2023-06-14T06:06:55;7.78;;;6.55;;
18162;SDS011;9206;50.994;4.538;2023-06-14T06:09:45;6.95;;;6.35;;
18162;SDS011;9206;50.994;4.538;2023-06-14T06:15:59;6.88;;;6.28;;
18162;SDS011;9206;50.994;4.538;2023-06-14T06:18:46;8.80;;;6.35;;
18162;SDS011;9206;50.994;4.538;2023-06-14T06:21:49;6.40;;;5.80;;
18162;SDS011;9206;50.994;4.538;2023-06-14T06:24:53;6.97;;;6.43;;
18162;SDS011;9206;50.994;4.538;2023-06-14T06:31:26;8.63;;;5.85;;
18162;SDS011;9206;50.994;4.538;2023-06-14T06:34:19;5.60;;;5.10;;
18162;SDS011;9206;50.994;4.538;2023-06-14T06:37:10;7.45;;;5.90;;
18162;SDS011;9206;50.994;4.538;2023-06-14T06:39:58;6.72;;;5.82;;
18162;SDS011;9206;50.994;4.538;2023-06-14T06:42:51;5.95;;;5.38;;
18162;SDS011;9206;50.994;4.538;2023-06-14T06:45:42;6.88;;;5.90;;
18162;SDS011;9206;50.994;4.538;2023-06-14T06:55:07;10.32;;;5.65;;
18162;SDS011;9206;50.994;4.538;2023-06-14T06:58:03;5.60;;;5.10;;
18162;SDS011;9206;50.994;4.538;2023-06-14T07:00:57;6.18;;;5.50;;
18162;SDS011;9206;50.994;4.538;2023-06-14T07:03:52;5.53;;;5.03;;
18162;SDS011;9206;50.994;4.538;2023-06-14T07:06:41;7.72;;;5.38;;
18162;SDS011;9206;50.994;4.538;2023-06-14T07:09:29;7.05;;;5.57;;
18162;SDS011;9206;50.994;4.538;2023-06-14T07:12:19;5.60;;;5.15;;
18162;SDS011;9206;50.994;4.538;2023-06-14T07:15:09;7.10;;;5.13;;
18162;SDS011;9206;50.994;4.538;2023-06-14T07:18:15;6.20;;;5.13;;
18162;SDS011;9206;50.994;4.538;2023-06-14T07:21:08;5.13;;;4.78;;
18162;SDS011;9206;50.994;4.538;2023-06-14T07:24:05;6.03;;;5.50;;
18162;SDS011;9206;50.994;4.538;2023-06-14T07:26:54;7.30;;;4.75;;
18162;SDS011;9206;50.994;4.538;2023-06-14T07:29:41;5.57;;;4.95;;
18162;SDS011;9206;50.994;4.538;2023-06-14T07:32:29;6.60;;;5.30;;
18162;SDS011;9206;50.994;4.538;2023-06-14T09:17:26;7.90;;;4.57;;
18162;SDS011;9206;50.994;4.538;2023-06-14T09:28:47;6.03;;;4.72;;
18162;SDS011;9206;50.994;4.538;2023-06-14T09:32:24;5.72;;;5.13;;
18162;SDS011;9206;50.994;4.538;2023-06-14T10:26:54;5.50;;;3.58;;
18162;SDS011;9206;50.994;4.538;2023-06-14T10:32:12;4.32;;;3.20;;
18162;SDS011;9206;50.994;4.538;2023-06-14T10:35:04;4.10;;;3.58;;
18162;SDS011;9206;50.994;4.538;2023-06-14T10:38:06;4.10;;;3.42;;
18162;SDS011;9206;50.994;4.538;2023-06-14T10:41:00;9.02;;;3.92;;
18162;SDS011;9206;50.994;4.538;2023-06-14T10:43:49;4.65;;;3.63;;
18162;SDS011;9206;50.994;4.538;2023-06-14T10:46:47;4.75;;;3.63;;
18162;SDS011;9206;50.994;4.538;2023-06-14T10:49:36;3.95;;;3.42;;
18162;SDS011;9206;50.994;4.538;2023-06-14T10:52:33;4.07;;;3.28;;
18162;SDS011;9206;50.994;4.538;2023-06-14T10:55:37;5.03;;;4.30;;
18162;SDS011;9206;50.994;4.538;2023-06-14T11:04:30;6.22;;;3.67;;
18162;SDS011;9206;50.994;4.538;2023-06-14T11:07:40;4.07;;;3.17;;
18162;SDS011;9206;50.994;4.538;2023-06-14T11:11:14;3.40;;;3.20;;
18162;SDS011;9206;50.994;4.538;2023-06-14T11:14:07;5.53;;;3.35;;
18162;SDS011;9206;50.994;4.538;2023-06-14T11:16:56;4.22;;;3.58;;
18162;SDS011;9206;50.994;4.538;2023-06-14T11:42:35;6.20;;;3.30;;
18162;SDS011;9206;50.994;4.538;2023-06-14T11:45:32;4.47;;;3.25;;
18162;SDS011;9206;50.994;4.538;2023-06-14T11:58:18;4.18;;;3.10;;
18162;SDS011;9206;50.994;4.538;2023-06-14T12:01:16;5.38;;;2.97;;
18162;SDS011;9206;50.994;4.538;2023-06-14T12:17:37;3.33;;;2.55;;
18162;SDS011;9206;50.994;4.538;2023-06-14T12:23:07;9.63;;;3.10;;
18162;SDS011;9206;50.994;4.538;2023-06-14T12:29:42;3.67;;;3.15;;
18162;SDS011;9206;50.994;4.538;2023-06-14T14:10:27;4.50;;;1.70;;
18162;SDS011;9206;50.994;4.538;2023-06-14T14:57:31;3.35;;;1.80;;
18162;SDS011;9206;50.994;4.538;2023-06-14T15:00:20;2.60;;;1.70;;
18162;SDS011;9206;50.994;4.538;2023-06-14T15:03:38;2.05;;;1.90;;
18162;SDS011;9206;50.994;4.538;2023-06-14T15:06:27;6.75;;;2.00;;
18162;SDS011;9206;50.994;4.538;2023-06-14T15:10:54;4.38;;;1.90;;
18162;SDS011;9206;50.994;4.538;2023-06-14T15:19:47;2.90;;;2.00;;
18162;SDS011;9206;50.994;4.538;2023-06-14T15:22:34;4.65;;;1.90;;
18162;SDS011;9206;50.994;4.538;2023-06-14T15:25:22;3.60;;;1.90;;
18162;SDS011;9206;50.994;4.538;2023-06-14T15:38:33;3.60;;;1.52;;
18162;SDS011;9206;50.994;4.538;2023-06-14T15:47:25;1.75;;;1.65;;
18162;SDS011;9206;50.994;4.538;2023-06-14T15:50:13;2.72;;;1.40;;
18162;SDS011;9206;50.994;4.538;2023-06-14T15:55:34;2.88;;;1.60;;
18162;SDS011;9206;50.994;4.538;2023-06-14T16:05:11;2.38;;;1.88;;
18162;SDS011;9206;50.994;4.538;2023-06-14T16:10:59;7.18;;;1.65;;
18162;SDS011;9206;50.994;4.538;2023-06-14T16:16:58;7.38;;;1.80;;
18162;SDS011;9206;50.994;4.538;2023-06-14T16:23:50;1.85;;;1.58;;
18162;SDS011;9206;50.994;4.538;2023-06-14T16:26:39;1.90;;;1.52;;
18162;SDS011;9206;50.994;4.538;2023-06-14T16:29:27;2.47;;;1.80;;
18162;SDS011;9206;50.994;4.538;2023-06-14T16:36:03;2.28;;;1.58;;
18162;SDS011;9206;50.994;4.538;2023-06-14T16:39:00;4.32;;;1.40;;
18162;SDS011;9206;50.994;4.538;2023-06-14T16:42:03;7.03;;;1.70;;
18162;SDS011;9206;50.994;4.538;2023-06-14T16:44:58;4.78;;;1.48;;
18162;SDS011;9206;50.994;4.538;2023-06-14T16:47:49;3.22;;;1.40;;
18162;SDS011;9206;50.994;4.538;2023-06-14T16:50:36;4.82;;;1.35;;
18162;SDS011;9206;50.994;4.538;2023-06-14T16:56:35;3.25;;;1.40;;
18162;SDS011;9206;50.994;4.538;2023-06-14T16:59:26;1.45;;;1.42;;
18162;SDS011;9206;50.994;4.538;2023-06-14T17:02:19;1.60;;;1.50;;
18162;SDS011;9206;50.994;4.538;2023-06-14T17:05:31;2.63;;;1.48;;
18162;SDS011;9206;50.994;4.538;2023-06-14T17:08:21;3.15;;;1.60;;
18162;SDS011;9206;50.994;4.538;2023-06-14T17:11:10;5.57;;;1.55;;
18162;SDS011;9206;50.994;4.538;2023-06-14T17:13:58;5.57;;;1.50;;
18162;SDS011;9206;50.994;4.538;2023-06-14T17:20:06;1.20;;;1.20;;
18162;SDS011;9206;50.994;4.538;2023-06-14T17:22:54;5.43;;;1.50;;
18162;SDS011;9206;50.994;4.538;2023-06-14T17:25:42;3.17;;;1.30;;
18162;SDS011;9206;50.994;4.538;2023-06-14T17:28:31;2.65;;;1.40;;
18162;SDS011;9206;50.994;4.538;2023-06-14T17:31:22;1.25;;;1.10;;
18162;SDS011;9206;50.994;4.538;2023-06-14T17:34:11;1.98;;;1.20;;
18162;SDS011;9206;50.994;4.538;2023-06-14T17:36:59;4.28;;;1.17;;
18162;SDS011;9206;50.994;4.538;2023-06-14T17:40:09;1.60;;;1.00;;
18162;SDS011;9206;50.994;4.538;2023-06-14T17:43:10;5.60;;;1.20;;
18162;SDS011;9206;50.994;4.538;2023-06-14T17:45:58;2.70;;;0.90;;
18162;SDS011;9206;50.994;4.538;2023-06-14T17:48:45;3.08;;;1.25;;
18162;SDS011;9206;50.994;4.538;2023-06-14T17:51:34;2.20;;;1.17;;
18162;SDS011;9206;50.994;4.538;2023-06-14T17:54:27;1.10;;;1.10;;
18162;SDS011;9206;50.994;4.538;2023-06-14T17:57:24;2.15;;;1.10;;
18162;SDS011;9206;50.994;4.538;2023-06-14T18:00:11;4.47;;;1.33;;
18162;SDS011;9206;50.994;4.538;2023-06-14T18:03:05;2.08;;;1.55;;
18162;SDS011;9206;50.994;4.538;2023-06-14T18:05:53;0.98;;;0.98;;
18162;SDS011;9206;50.994;4.538;2023-06-14T18:08:53;1.10;;;0.93;;
18162;SDS011;9206;50.994;4.538;2023-06-14T18:11:42;1.50;;;1.35;;
18162;SDS011;9206;50.994;4.538;2023-06-14T18:14:30;5.75;;;1.52;;
18162;SDS011;9206;50.994;4.538;2023-06-14T18:17:18;2.58;;;1.20;;
18162;SDS011;9206;50.994;4.538;2023-06-14T18:20:06;3.60;;;1.10;;
18162;SDS011;9206;50.994;4.538;2023-06-14T18:22:55;2.35;;;1.02;;
18162;SDS011;9206;50.994;4.538;2023-06-14T18:25:44;2.30;;;1.50;;
18162;SDS011;9206;50.994;4.538;2023-06-14T18:28:35;0.93;;;0.93;;
18162;SDS011;9206;50.994;4.538;2023-06-14T18:34:58;3.83;;;1.30;;
18162;SDS011;9206;50.994;4.538;2023-06-14T18:37:53;3.35;;;1.40;;
18162;SDS011;9206;50.994;4.538;2023-06-14T18:40:43;1.17;;;1.08;;
18162;SDS011;9206;50.994;4.538;2023-06-14T18:43:34;3.40;;;1.23;;
18162;SDS011;9206;50.994;4.538;2023-06-14T18:50:38;3.50;;;1.80;;
18162;SDS011;9206;50.994;4.538;2023-06-14T18:53:28;3.85;;;1.42;;
18162;SDS011;9206;50.994;4.538;2023-06-14T18:59:40;8.23;;;1.23;;
18162;SDS011;9206;50.994;4.538;2023-06-14T19:05:49;1.30;;;1.20;;
18162;SDS011;9206;50.994;4.538;2023-06-14T19:08:37;2.35;;;1.38;;
18162;SDS011;9206;50.994;4.538;2023-06-14T19:12:15;4.00;;;1.77;;
18162;SDS011;9206;50.994;4.538;2023-06-14T19:15:05;4.20;;;1.30;;
18162;SDS011;9206;50.994;4.538;2023-06-14T19:17:58;4.00;;;1.45;;
18162;SDS011;9206;50.994;4.538;2023-06-14T19:21:22;7.85;;;1.75;;
18162;SDS011;9206;50.994;4.538;2023-06-14T19:24:09;6.47;;;1.45;;
18162;SDS011;9206;50.994;4.538;2023-06-14T19:27:00;1.80;;;1.27;;
18162;SDS011;9206;50.994;4.538;2023-06-14T19:29:52;4.70;;;1.50;;
18162;SDS011;9206;50.994;4.538;2023-06-14T19:32:39;2.70;;;1.50;;
18162;SDS011;9206;50.994;4.538;2023-06-14T19:35:27;10.98;;;1.67;;
18162;SDS011;9206;50.994;4.538;2023-06-14T19:38:18;19.63;;;1.60;;
18162;SDS011;9206;50.994;4.538;2023-06-14T19:41:13;2.72;;;1.48;;
18162;SDS011;9206;50.994;4.538;2023-06-14T19:44:01;13.88;;;1.42;;
18162;SDS011;9206;50.994;4.538;2023-06-14T19:46:53;13.18;;;1.40;;
18162;SDS011;9206;50.994;4.538;2023-06-14T19:49:58;6.95;;;1.60;;
18162;SDS011;9206;50.994;4.538;2023-06-14T19:52:45;1.70;;;1.60;;
18162;SDS011;9206;50.994;4.538;2023-06-14T19:55:33;7.03;;;1.98;;
18162;SDS011;9206;50.994;4.538;2023-06-14T19:58:20;2.25;;;1.40;;
18162;SDS011;9206;50.994;4.538;2023-06-14T20:01:09;2.78;;;1.48;;
18162;SDS011;9206;50.994;4.538;2023-06-14T20:04:08;5.82;;;1.80;;
18162;SDS011;9206;50.994;4.538;2023-06-14T20:10:54;4.30;;;1.60;;
18162;SDS011;9206;50.994;4.538;2023-06-14T20:13:44;13.70;;;2.08;;
18162;SDS011;9206;50.994;4.538;2023-06-14T20:16:34;9.20;;;1.60;;
18162;SDS011;9206;50.994;4.538;2023-06-14T20:22:16;10.73;;;2.05;;
18162;SDS011;9206;50.994;4.538;2023-06-14T20:25:51;10.38;;;1.90;;
18162;SDS011;9206;50.994;4.538;2023-06-14T20:28:32;2.53;;;1.52;;
18162;SDS011;9206;50.994;4.538;2023-06-14T20:31:22;1.83;;;1.60;;
18162;SDS011;9206;50.994;4.538;2023-06-14T20:34:11;1.85;;;1.60;;
18162;SDS011;9206;50.994;4.538;2023-06-14T20:37:03;3.53;;;1.75;;
18162;SDS011;9206;50.994;4.538;2023-06-14T20:40:23;3.17;;;2.10;;
18162;SDS011;9206;50.994;4.538;2023-06-14T20:43:33;5.88;;;2.13;;
18162;SDS011;9206;50.994;4.538;2023-06-14T20:46:21;21.35;;;2.25;;
18162;SDS011;9206;50.994;4.538;2023-06-14T20:49:28;10.07;;;2.08;;
18162;SDS011;9206;50.994;4.538;2023-06-14T20:52:19;10.07;;;2.10;;
18162;SDS011;9206;50.994;4.538;2023-06-14T20:58:06;3.17;;;1.83;;
18162;SDS011;9206;50.994;4.538;2023-06-14T21:00:53;5.47;;;1.90;;
18162;SDS011;9206;50.994;4.538;2023-06-14T21:03:42;4.40;;;1.92;;
18162;SDS011;9206;50.994;4.538;2023-06-14T21:06:29;3.70;;;1.88;;
18162;SDS011;9206;50.994;4.538;2023-06-14T21:09:19;12.60;;;2.25;;
18162;SDS011;9206;50.994;4.538;2023-06-14T21:12:08;3.67;;;2.10;;
18162;SDS011;9206;50.994;4.538;2023-06-14T21:14:57;3.50;;;1.75;;
18162;SDS011;9206;50.994;4.538;2023-06-14T21:17:45;1.98;;;1.88;;
18162;SDS011;9206;50.994;4.538;2023-06-14T21:20:33;3.92;;;2.22;;
18162;SDS011;9206;50.994;4.538;2023-06-14T21:23:21;8.38;;;2.10;;
18162;SDS011;9206;50.994;4.538;2023-06-14T21:26:10;2.17;;;1.75;;
18162;SDS011;9206;50.994;4.538;2023-06-14T21:28:57;6.40;;;2.00;;
18162;SDS011;9206;50.994;4.538;2023-06-14T21:32:21;2.40;;;1.95;;
18162;SDS011;9206;50.994;4.538;2023-06-14T21:35:16;12.30;;;2.38;;
18162;SDS011;9206;50.994;4.538;2023-06-14T21:38:07;6.95;;;2.30;;
18162;SDS011;9206;50.994;4.538;2023-06-14T21:41:00;5.82;;;2.03;;
18162;SDS011;9206;50.994;4.538;2023-06-14T21:43:52;2.20;;;2.10;;
18162;SDS011;9206;50.994;4.538;2023-06-14T21:46:41;5.93;;;2.00;;
18162;SDS011;9206;50.994;4.538;2023-06-14T21:49:30;10.20;;;2.00;;
18162;SDS011;9206;50.994;4.538;2023-06-14T21:52:18;6.55;;;2.58;;
18162;SDS011;9206;50.994;4.538;2023-06-14T21:55:22;10.35;;;2.10;;
18162;SDS011;9206;50.994;4.538;2023-06-14T21:58:16;11.27;;;2.40;;
18162;SDS011;9206;50.994;4.538;2023-06-14T22:01:05;3.78;;;2.25;;
18162;SDS011;9206;50.994;4.538;2023-06-14T22:03:59;10.20;;;2.45;;
18162;SDS011;9206;50.994;4.538;2023-06-14T22:06:46;7.07;;;2.58;;
18162;SDS011;9206;50.994;4.538;2023-06-14T22:09:34;6.90;;;2.40;;
18162;SDS011;9206;50.994;4.538;2023-06-14T22:12:23;5.32;;;2.38;;
18162;SDS011;9206;50.994;4.538;2023-06-14T22:15:17;4.72;;;2.25;;
18162;SDS011;9206;50.994;4.538;2023-06-14T22:18:29;2.47;;;2.28;;
18162;SDS011;9206;50.994;4.538;2023-06-14T22:21:17;3.33;;;2.22;;
18162;SDS011;9206;50.994;4.538;2023-06-14T22:24:12;3.67;;;2.38;;
18162;SDS011;9206;50.994;4.538;2023-06-14T22:27:02;2.90;;;2.20;;
18162;SDS011;9206;50.994;4.538;2023-06-14T22:29:51;7.07;;;2.38;;
18162;SDS011;9206;50.994;4.538;2023-06-14T22:32:43;4.03;;;2.65;;
18162;SDS011;9206;50.994;4.538;2023-06-14T22:35:33;4.13;;;2.17;;
18162;SDS011;9206;50.994;4.538;2023-06-14T22:38:27;3.15;;;2.40;;
18162;SDS011;9206;50.994;4.538;2023-06-14T22:41:15;3.42;;;2.30;;
18162;SDS011;9206;50.994;4.538;2023-06-14T22:44:04;6.28;;;2.47;;
18162;SDS011;9206;50.994;4.538;2023-06-14T22:47:06;2.55;;;2.35;;
18162;SDS011;9206;50.994;4.538;2023-06-14T22:50:31;8.93;;;2.33;;
18162;SDS011;9206;50.994;4.538;2023-06-14T22:53:56;2.78;;;2.58;;
18162;SDS011;9206;50.994;4.538;2023-06-14T22:56:43;5.47;;;2.40;;
18162;SDS011;9206;50.994;4.538;2023-06-14T22:59:36;4.75;;;2.38;;
18162;SDS011;9206;50.994;4.538;2023-06-14T23:02:25;5.10;;;2.65;;
18162;SDS011;9206;50.994;4.538;2023-06-14T23:05:13;4.07;;;2.47;;
18162;SDS011;9206;50.994;4.538;2023-06-14T23:08:03;4.88;;;2.40;;
18162;SDS011;9206;50.994;4.538;2023-06-14T23:10:52;3.20;;;2.60;;
18162;SDS011;9206;50.994;4.538;2023-06-14T23:13:55;2.83;;;2.72;;
18162;SDS011;9206;50.994;4.538;2023-06-14T23:16:43;3.50;;;2.42;;
18162;SDS011;9206;50.994;4.538;2023-06-14T23:19:34;5.47;;;2.97;;
18162;SDS011;9206;50.994;4.538;2023-06-14T23:22:27;2.85;;;2.63;;
18162;SDS011;9206;50.994;4.538;2023-06-14T23:25:22;3.85;;;2.67;;
18162;SDS011;9206;50.994;4.538;2023-06-14T23:28:12;7.75;;;2.55;;
18162;SDS011;9206;50.994;4.538;2023-06-14T23:31:03;5.47;;;2.53;;
18162;SDS011;9206;50.994;4.538;2023-06-14T23:33:58;3.05;;;2.67;;
18162;SDS011;9206;50.994;4.538;2023-06-14T23:36:52;3.40;;;2.80;;
18162;SDS011;9206;50.994;4.538;2023-06-14T23:39:39;4.85;;;2.47;;
18162;SDS011;9206;50.994;4.538;2023-06-14T23:42:39;6.68;;;2.70;;
18162;SDS011;9206;50.994;4.538;2023-06-14T23:45:38;6.20;;;3.28;;
18162;SDS011;9206;50.994;4.538;2023-06-14T23:48:31;2.72;;;2.63;;
18162;SDS011;9206;50.994;4.538;2023-06-14T23:51:24;2.63;;;2.40;;
18162;SDS011;9206;50.994;4.538;2023-06-14T23:54:14;3.08;;;2.60;;
18162;SDS011;9206;50.994;4.538;2023-06-14T23:57:25;2.80;;;2.60;;
